Time;durP1;ratioP1;P1;durP2;ratioP2;P2;SDS_P1;SDS_P2;PMS_P1;PMS_P2;Temp;Humidity;BMP_temperature;BMP_pressure;BME280_temperature;BME280_humidity;BME280_pressure;Samples;Min_cycle;Max_cycle;Signal;HPM_P1;HPM_P2
2021/01/22 00:01:18;;;;;;;40.28;23.22;;;;;;;0.47;83.04;101446.98;1730532;80;21000;-81
2021/01/22 00:03:46;;;;;;;41.35;24.60;;;;;;;0.46;83.00;101452.58;1718745;80;21320;-81
2021/01/22 00:06:15;;;;;;;40.98;23.52;;;;;;;0.46;83.03;101451.73;1746468;80;21189;-81
2021/01/22 00:08:43;;;;;;;33.50;19.90;;;;;;;0.48;82.95;101439.69;1744404;80;21626;-81
2021/01/22 00:11:11;;;;;;;34.67;21.80;;;;;;;0.48;83.23;101444.41;1747400;80;20979;-81
2021/01/22 00:13:39;;;;;;;33.00;22.32;;;;;;;0.47;83.45;101441.42;1747686;80;21021;-84
2021/01/22 00:16:08;;;;;;;40.30;23.75;;;;;;;0.49;83.66;101442.67;1740521;80;21029;-81
2021/01/22 00:18:35;;;;;;;34.92;21.52;;;;;;;0.49;83.62;101431.06;1732826;80;21049;-81
2021/01/22 00:21:04;;;;;;;30.10;19.73;;;;;;;0.54;83.67;101435.79;1735094;80;21136;-82
2021/01/22 00:23:37;;;;;;;33.38;19.87;;;;;;;0.58;83.67;101434.91;1734507;80;21046;-80
2021/01/22 00:26:02;;;;;;;30.82;21.20;;;;;;;0.58;83.75;101428.46;1748720;80;21536;-80
2021/01/22 00:28:30;;;;;;;38.98;20.88;;;;;;;0.58;83.95;101431.89;1739179;80;21061;-83
2021/01/22 00:30:58;;;;;;;35.65;21.57;;;;;;;0.60;84.16;101429.28;1736883;80;21015;-82
2021/01/22 00:33:26;;;;;;;38.15;23.22;;;;;;;0.63;84.28;101424.56;1739666;80;21093;-81
2021/01/22 00:35:55;;;;;;;33.65;21.55;;;;;;;0.66;84.20;101426.67;1739088;80;21042;-81
2021/01/22 00:38:23;;;;;;;33.83;21.10;;;;;;;0.72;84.11;101413.73;1734391;80;20979;-82
2021/01/22 00:40:51;;;;;;;31.27;20.70;;;;;;;0.78;84.26;101420.59;1729704;80;21094;-82
2021/01/22 00:43:20;;;;;;;36.90;20.17;;;;;;;0.84;84.34;101412.78;1733389;80;21133;-81
2021/01/22 00:45:48;;;;;;;36.48;20.70;;;;;;;0.85;84.65;101411.93;1740679;80;21526;-80
2021/01/22 00:48:16;;;;;;;30.90;20.92;;;;;;;0.91;84.69;101411.02;1742773;80;20963;-80
2021/01/22 00:50:44;;;;;;;33.45;18.17;;;;;;;0.92;84.67;101414.89;1733154;80;20991;-81
2021/01/22 00:53:12;;;;;;;34.05;19.82;;;;;;;0.94;84.89;101409.72;1703998;80;21031;-81
2021/01/22 00:55:40;;;;;;;30.75;19.82;;;;;;;0.98;84.91;101413.55;1733556;80;20983;-81
2021/01/22 00:58:17;;;;;;;32.45;18.70;;;;;;;1.02;84.95;101415.25;1734980;80;21042;-80
2021/01/22 01:00:45;;;;;;;33.13;17.82;;;;;;;1.07;84.98;101416.91;1741954;80;20982;-80
2021/01/22 01:03:21;;;;;;;32.78;19.82;;;;;;;1.09;85.03;101410.02;1751245;80;22177;-80
2021/01/22 01:05:49;;;;;;;35.28;19.42;;;;;;;1.13;85.06;101420.75;1731823;80;20971;-80
2021/01/22 01:08:17;;;;;;;34.73;19.92;;;;;;;1.14;85.00;101412.99;1740186;80;20992;-82
2021/01/22 01:10:56;;;;;;;33.45;18.92;;;;;;;1.16;85.00;101417.72;1722012;80;21114;-80
2021/01/22 01:13:34;;;;;;;31.75;19.65;;;;;;;1.20;84.94;101414.66;1746121;80;20967;-83
2021/01/22 01:16:14;;;;;;;31.20;18.32;;;;;;;1.22;84.87;101409.92;1718990;80;21365;-82
2021/01/22 01:18:42;;;;;;;27.10;17.87;;;;;;;1.25;84.91;101411.62;1727529;80;21008;-84
2021/01/22 01:21:12;;;;;;;27.13;17.90;;;;;;;1.27;85.02;101416.34;1735894;81;21030;-79
2021/01/22 01:23:40;;;;;;;29.50;19.57;;;;;;;1.29;85.07;101408.55;1732573;80;20979;-81
2021/01/22 01:26:08;;;;;;;38.20;19.55;;;;;;;1.31;85.00;101413.27;1731989;81;20971;-79
2021/01/22 01:28:36;;;;;;;30.10;19.45;;;;;;;1.29;84.93;101399.09;1736737;80;21676;-81
2021/01/22 01:31:05;;;;;;;28.80;18.12;;;;;;;1.30;84.76;101398.22;1728026;80;21094;-80
2021/01/22 01:33:34;;;;;;;36.50;18.92;;;;;;;1.31;84.72;101395.19;1753705;80;21026;-80
2021/01/22 01:36:03;;;;;;;26.25;18.05;;;;;;;1.30;84.79;101390.46;1737602;80;20915;-83
2021/01/22 01:38:31;;;;;;;29.70;19.07;;;;;;;1.30;84.91;101379.28;1734739;80;20959;-82
2021/01/22 01:41:00;;;;;;;33.28;19.23;;;;;;;1.30;84.96;101390.46;1736737;80;22196;-80
2021/01/22 01:43:29;;;;;;;33.65;18.62;;;;;;;1.30;84.94;101396.08;1733988;80;21086;-80
2021/01/22 01:45:57;;;;;;;31.45;18.37;;;;;;;1.30;84.82;101387.88;1735944;80;21586;-79
2021/01/22 01:48:25;;;;;;;29.67;18.73;;;;;;;1.34;84.75;101387.42;1735636;80;21046;-81
2021/01/22 01:50:53;;;;;;;27.75;18.10;;;;;;;1.34;84.77;101386.14;1742901;80;20994;-81
2021/01/22 01:53:22;;;;;;;27.50;16.73;;;;;;;1.34;84.86;101391.30;1743196;80;22224;-81
2021/01/22 01:55:51;;;;;;;29.92;17.67;;;;;;;1.34;84.93;101387.42;1734543;80;20978;-81
2021/01/22 01:58:19;;;;;;;31.95;18.32;;;;;;;1.35;84.87;101390.42;1733028;80;21188;-83
2021/01/22 02:00:47;;;;;;;27.42;17.65;;;;;;;1.32;84.78;101390.02;1763693;80;21695;-82
2021/01/22 02:03:16;;;;;;;33.25;19.87;;;;;;;1.35;84.70;101388.68;1735890;80;21002;-83
2021/01/22 02:05:45;;;;;;;22.87;15.48;;;;;;;1.38;84.62;101386.50;1723247;80;21590;-82
2021/01/22 02:08:15;;;;;;;28.05;16.80;;;;;;;1.40;84.69;101388.64;1735996;80;20982;-83
2021/01/22 02:10:43;;;;;;;24.07;15.03;;;;;;;1.41;84.78;101383.91;1739925;80;20935;-82
2021/01/22 02:13:11;;;;;;;26.77;16.37;;;;;;;1.44;84.93;101383.86;1733182;80;21448;-83
2021/01/22 02:15:39;;;;;;;26.97;16.77;;;;;;;1.45;85.09;101377.84;1736222;81;21098;-81
2021/01/22 02:18:08;;;;;;;29.82;16.40;;;;;;;1.51;85.13;101380.34;1733045;80;20995;-81
2021/01/22 02:20:51;;;;;;;30.60;17.17;;;;;;;1.55;85.02;101365.66;1754797;80;21046;-81
2021/01/22 02:23:20;;;;;;;26.35;15.90;;;;;;;1.58;84.87;101365.20;1744596;80;21132;-80
2021/01/22 02:25:50;;;;;;;32.20;14.65;;;;;;;1.62;84.96;101363.02;1732004;80;21085;-80
2021/01/22 02:28:18;;;;;;;29.00;16.67;;;;;;;1.62;85.15;101364.31;1740255;80;20907;-80
2021/01/22 02:30:48;;;;;;;31.65;17.35;;;;;;;1.64;85.21;101361.23;1733882;80;21104;-85
2021/01/22 02:33:17;;;;;;;30.43;18.37;;;;;;;1.66;85.22;101358.20;1738615;80;21048;-84
2021/01/22 02:35:46;;;;;;;29.87;17.27;;;;;;;1.68;85.12;101367.25;1746106;80;21083;-82
2021/01/22 02:38:15;;;;;;;27.27;16.80;;;;;;;1.71;85.03;101365.05;1735100;80;21036;-82
2021/01/22 02:40:46;;;;;;;28.90;16.07;;;;;;;1.73;84.96;101352.97;1733906;80;21479;-83
2021/01/22 02:43:14;;;;;;;22.00;15.88;;;;;;;1.72;84.99;101352.56;1749042;80;21893;-83
2021/01/22 02:45:44;;;;;;;26.42;16.93;;;;;;;1.74;85.02;101359.42;1733807;80;21536;-85
2021/01/22 02:48:13;;;;;;;24.50;15.65;;;;;;;1.75;85.11;101357.24;1739071;80;21205;-84
2021/01/22 02:50:42;;;;;;;24.80;15.43;;;;;;;1.78;85.13;101356.34;1736777;80;21678;-82
2021/01/22 02:53:10;;;;;;;27.35;15.35;;;;;;;1.80;85.12;101353.31;1734647;80;21062;-83
2021/01/22 02:55:39;;;;;;;23.52;15.23;;;;;;;1.81;85.12;101349.86;1734013;80;22197;-84
2021/01/22 02:58:23;;;;;;;22.30;14.65;;;;;;;1.83;85.21;101340.36;1738096;80;21658;-82
2021/01/22 03:00:54;;;;;;;20.75;14.87;;;;;;;1.88;85.23;101336.42;1749885;80;21446;-82
2021/01/22 03:03:55;;;;;;;17.90;11.83;;;;;;;1.91;85.22;101338.96;1742792;80;21611;-82
2021/01/22 03:06:29;;;;;;;21.07;13.32;;;;;;;1.95;85.31;101344.07;1749534;80;21050;-83
2021/01/22 03:08:58;;;;;;;21.20;13.25;;;;;;;1.99;85.35;101347.48;1744432;80;21114;-81
2021/01/22 03:11:26;;;;;;;17.80;13.15;;;;;;;2.03;85.33;101348.72;1741145;80;21053;-83
2021/01/22 03:13:55;;;;;;;26.50;14.38;;;;;;;2.04;85.26;101343.95;1751017;80;21148;-82
2021/01/22 03:16:25;;;;;;;23.00;14.35;;;;;;;2.09;85.13;101345.21;1744290;80;21028;-83
2021/01/22 03:19:01;;;;;;;19.85;13.08;;;;;;;2.11;85.09;101346.02;1780126;80;20898;-83
2021/01/22 03:21:29;;;;;;;23.18;14.43;;;;;;;2.12;85.11;101348.19;1756610;80;21863;-83
2021/01/22 03:23:57;;;;;;;24.55;15.30;;;;;;;2.15;85.10;101354.16;1709874;82;21060;-83
2021/01/22 03:26:26;;;;;;;25.80;16.25;;;;;;;2.18;85.04;101353.26;1744884;80;21078;-83
2021/01/22 03:28:54;;;;;;;22.48;14.63;;;;;;;2.21;84.95;101349.36;1748100;79;20967;-82
2021/01/22 03:31:22;;;;;;;27.55;16.50;;;;;;;2.24;84.86;101342.83;1737358;80;21093;-80
2021/01/22 03:33:51;;;;;;;24.18;15.08;;;;;;;2.25;84.79;101343.27;1745590;80;22006;-82
2021/01/22 03:36:19;;;;;;;20.77;13.68;;;;;;;2.28;84.70;101340.17;1745459;80;21607;-80
2021/01/22 03:38:46;;;;;;;22.22;13.30;;;;;;;2.31;84.65;101344.45;1742078;80;21058;-81
2021/01/22 03:41:15;;;;;;;20.15;13.53;;;;;;;2.34;84.69;101339.70;1735126;80;21741;-81
2021/01/22 03:43:42;;;;;;;18.17;13.45;;;;;;;2.36;84.81;101350.88;1734055;80;21149;-80
2021/01/22 03:46:10;;;;;;;26.00;17.95;;;;;;;2.38;84.76;101346.52;1744038;80;21237;-80
2021/01/22 03:48:40;;;;;;;25.92;17.02;;;;;;;2.39;84.63;101346.95;1736669;80;21034;-81
2021/01/22 03:51:08;;;;;;;23.83;15.50;;;;;;;2.39;84.45;101342.63;1736790;80;20954;-80
2021/01/22 03:53:36;;;;;;;28.35;18.60;;;;;;;2.41;84.26;101338.72;1747545;80;20927;-81
2021/01/22 03:56:04;;;;;;;27.85;16.37;;;;;;;2.44;84.18;101343.84;1744634;80;21496;-81
2021/01/22 03:58:32;;;;;;;23.47;15.03;;;;;;;2.44;84.21;101343.40;1737349;80;21262;-82
2021/01/22 04:01:00;;;;;;;20.82;14.58;;;;;;;2.44;84.23;101343.40;1738449;80;21260;-81
2021/01/22 04:03:28;;;;;;;25.30;16.67;;;;;;;2.45;84.35;101344.28;1740985;80;21034;-82
2021/01/22 04:05:59;;;;;;;27.10;16.60;;;;;;;2.44;84.28;101343.40;1752239;80;21030;-79
2021/01/22 04:08:29;;;;;;;29.12;16.02;;;;;;;2.43;84.30;101339.56;1743638;80;21129;-81
2021/01/22 04:10:57;;;;;;;22.95;13.62;;;;;;;2.43;84.31;101339.56;1736008;80;21639;-83
2021/01/22 04:13:25;;;;;;;23.80;14.53;;;;;;;2.43;84.44;101335.23;1739967;80;21727;-86
2021/01/22 04:15:53;;;;;;;20.15;14.18;;;;;;;2.44;84.54;101339.52;1737681;80;21061;-83
2021/01/22 04:18:21;;;;;;;20.80;14.43;;;;;;;2.45;84.67;101341.24;1739549;80;21432;-84
2021/01/22 04:20:50;;;;;;;20.00;13.38;;;;;;;2.45;84.64;101330.05;1751146;80;21481;-81
2021/01/22 04:23:18;;;;;;;28.80;17.48;;;;;;;2.45;84.66;101330.89;1747408;80;21591;-83
2021/01/22 04:25:47;;;;;;;28.30;18.45;;;;;;;2.45;84.60;101330.89;1734852;80;20948;-81
2021/01/22 04:28:15;;;;;;;20.23;14.55;;;;;;;2.48;84.40;101336.01;1733287;80;21007;-80
2021/01/22 04:30:43;;;;;;;17.55;12.20;;;;;;;2.50;84.32;101334.70;1733198;80;21698;-80
2021/01/22 04:33:12;;;;;;;17.90;11.88;;;;;;;2.52;84.38;101335.98;1734326;80;21122;-82
2021/01/22 04:35:43;;;;;;;20.90;13.45;;;;;;;2.52;84.39;101335.98;1756391;80;21355;-82
2021/01/22 04:38:11;;;;;;;16.73;11.40;;;;;;;2.52;84.40;101330.80;1739268;80;21497;-82
2021/01/22 04:40:53;;;;;;;15.65;12.37;;;;;;;2.53;84.29;101326.03;1730022;80;21154;-83
2021/01/22 04:43:25;;;;;;;;;;;;;;;2.52;84.22;101330.80;1782131;80;21093;-82
2021/01/22 04:45:54;;;;;;;18.00;11.12;;;;;;;2.51;84.16;101333.81;1773805;79;20477;-82
2021/01/22 04:48:22;;;;;;;18.85;10.40;;;;;;;2.49;84.13;101329.97;1725982;80;21008;-84
2021/01/22 04:50:51;;;;;;;16.07;11.00;;;;;;;2.47;84.12;101329.13;1742040;80;20982;-85
2021/01/22 04:53:18;;;;;;;16.27;12.25;;;;;;;2.46;84.14;101323.97;1736268;80;20955;-83
2021/01/22 04:55:47;;;;;;;20.32;13.45;;;;;;;2.43;84.20;101330.50;1693004;81;21022;-85
2021/01/22 04:58:16;;;;;;;18.50;12.90;;;;;;;2.40;84.25;101315.88;1706917;80;21014;-84
2021/01/22 05:00:44;;;;;;;18.48;12.10;;;;;;;2.40;84.30;101318.88;1737545;80;21822;-81
2021/01/22 05:03:14;;;;;;;16.73;12.05;;;;;;;2.39;84.32;101310.27;1734426;80;20967;-84
2021/01/22 05:05:43;;;;;;;21.30;12.63;;;;;;;2.40;84.37;101317.59;1732143;80;20995;-86
2021/01/22 05:08:12;;;;;;;18.42;11.85;;;;;;;2.38;84.51;101306.40;1737761;80;20915;-84
2021/01/22 05:10:40;;;;;;;18.00;13.60;;;;;;;2.37;84.52;101304.25;1732837;80;21754;-82
2021/01/22 05:13:09;;;;;;;18.77;13.28;;;;;;;2.36;84.65;101305.15;1730371;80;21046;-82
2021/01/22 05:15:38;;;;;;;21.07;13.62;;;;;;;2.36;84.85;101312.06;1734294;81;20978;-80
2021/01/22 05:18:08;;;;;;;19.05;14.28;;;;;;;2.35;84.89;101302.57;1738749;80;21077;-82
2021/01/22 05:20:45;;;;;;;18.90;13.05;;;;;;;2.36;84.89;101304.30;1750727;80;21062;-82
2021/01/22 05:23:15;;;;;;;16.35;11.83;;;;;;;2.37;84.83;101304.70;1757219;80;21058;-82
2021/01/22 05:26:06;;;;;;;22.75;12.20;;;;;;;2.33;85.08;101290.94;1736958;80;22178;-81
2021/01/22 05:28:41;;;;;;;19.65;13.58;;;;;;;2.36;85.20;101301.27;1746774;80;21428;-82
2021/01/22 05:31:10;;;;;;;26.57;17.30;;;;;;;2.36;85.28;101301.27;1752039;80;21152;-83
2021/01/22 05:33:41;;;;;;;21.82;14.93;;;;;;;2.36;85.28;101299.97;1744020;80;21061;-85
2021/01/22 05:36:32;;;;;;;22.55;15.05;;;;;;;2.36;85.36;101295.24;1731765;80;21622;-83
2021/01/22 05:39:01;;;;;;;20.92;14.68;;;;;;;2.39;85.30;101290.85;1734968;80;21170;-82
2021/01/22 05:41:29;;;;;;;22.37;14.70;;;;;;;2.40;85.23;101289.11;1743738;80;21000;-83
2021/01/22 05:43:58;;;;;;;21.45;13.98;;;;;;;2.39;85.29;101291.30;1728423;80;21159;-81
2021/01/22 05:46:35;;;;;;;26.12;15.68;;;;;;;2.38;85.45;101298.63;1747149;80;21031;-83
2021/01/22 05:49:07;;;;;;;27.27;18.48;;;;;;;2.37;85.48;101304.25;1728972;80;21077;-83
2021/01/22 05:51:36;;;;;;;26.93;16.67;;;;;;;2.37;85.48;101300.38;1738195;80;21125;-80
2021/01/22 05:54:05;;;;;;;25.85;16.87;;;;;;;2.40;85.54;101302.94;1740316;80;21652;-80
2021/01/22 05:56:35;;;;;;;19.23;14.63;;;;;;;2.44;85.62;101301.13;1729925;80;21492;-80
2021/01/22 05:59:15;;;;;;;21.02;14.07;;;;;;;2.45;85.75;101304.16;1735045;80;21046;-82
2021/01/22 06:01:44;;;;;;;22.77;15.50;;;;;;;2.49;85.77;101311.84;1741495;80;21174;-81
2021/01/22 06:04:13;;;;;;;25.80;17.15;;;;;;;2.52;85.67;101308.35;1741139;80;21183;-80
2021/01/22 06:06:44;;;;;;;26.17;17.45;;;;;;;2.54;85.65;101305.30;1743260;80;20967;-85
2021/01/22 06:09:14;;;;;;;27.35;15.32;;;;;;;2.56;85.59;101307.87;1739219;80;20947;-86
2021/01/22 06:11:45;;;;;;;22.10;14.83;;;;;;;2.58;85.48;101306.09;1754390;80;21371;-86
2021/01/22 06:14:14;;;;;;;28.25;18.37;;;;;;;2.59;85.40;101311.25;1738081;80;21220;-88
2021/01/22 06:16:43;;;;;;;21.02;14.58;;;;;;;2.59;85.40;101301.34;1742204;80;21814;-85
2021/01/22 06:19:13;;;;;;;23.10;16.73;;;;;;;2.64;85.39;101310.73;1752961;80;20971;-86
2021/01/22 06:22:00;;;;;;;27.25;17.27;;;;;;;2.65;85.35;101309.02;1738960;80;21420;-86
2021/01/22 06:24:51;;;;;;;27.67;16.07;;;;;;;2.65;85.35;101308.58;1768127;80;21129;-84
2021/01/22 06:27:20;;;;;;;21.77;15.93;;;;;;;2.66;85.25;101303.80;1745890;80;20963;-83
2021/01/22 06:29:49;;;;;;;26.17;16.05;;;;;;;2.68;85.13;101294.27;1738344;80;21430;-83
2021/01/22 06:32:18;;;;;;;26.02;16.35;;;;;;;2.72;85.12;101295.53;1732803;80;21042;-85
2021/01/22 06:34:48;;;;;;;27.55;16.23;;;;;;;2.74;85.13;101295.07;1726258;80;21216;-84
2021/01/22 06:37:17;;;;;;;23.02;15.30;;;;;;;2.77;85.12;101308.80;1752456;80;20990;-85
2021/01/22 06:39:52;;;;;;;29.48;17.20;;;;;;;2.80;85.03;101307.48;1735916;81;20963;-82
2021/01/22 06:42:21;;;;;;;30.10;18.77;;;;;;;2.84;84.94;101311.70;1735340;80;21939;-83
2021/01/22 06:44:49;;;;;;;25.15;17.27;;;;;;;2.85;84.87;101309.54;1737991;80;21026;-82
2021/01/22 06:47:18;;;;;;;24.57;17.17;;;;;;;2.91;84.68;101309.86;1728082;80;21177;-82
2021/01/22 06:49:46;;;;;;;22.22;17.35;;;;;;;2.94;84.59;101316.30;1750866;80;21109;-86
2021/01/22 06:52:14;;;;;;;24.35;16.45;;;;;;;2.97;84.47;101320.57;1734729;80;21578;-80
2021/01/22 06:55:02;;;;;;;24.32;17.73;;;;;;;2.97;84.42;101323.16;1735214;80;21058;-81
2021/01/22 06:57:30;;;;;;;30.43;18.98;;;;;;;2.97;84.49;101320.12;1730654;81;21257;-84
2021/01/22 07:00:01;;;;;;;26.73;17.98;;;;;;;3.00;84.40;101329.58;1751454;80;21073;-85
2021/01/22 07:02:40;;;;;;;28.27;17.20;;;;;;;3.04;84.35;101327.34;1737642;80;21088;-80
2021/01/22 07:05:34;;;;;;;23.57;16.90;;;;;;;3.06;84.28;101329.03;1742676;78;20986;-83
2021/01/22 07:08:08;;;;;;;24.18;17.82;;;;;;;3.08;84.31;101322.08;1734857;80;21920;-83
2021/01/22 07:11:02;;;;;;;29.07;18.15;;;;;;;3.12;84.49;101321.60;1755260;78;21109;-81
2021/01/22 07:13:34;;;;;;;;;;;;;;;3.15;84.56;101316.35;1758851;80;20934;-84
2021/01/22 07:16:13;;;;;;;32.20;18.30;;;;;;;3.18;84.45;101320.20;1775943;79;20145;-80
2021/01/22 07:18:55;;;;;;;23.47;16.73;;;;;;;3.19;84.48;101313.27;1759643;78;21124;-84
2021/01/22 07:21:43;;;;;;;27.15;17.35;;;;;;;3.23;84.44;101307.16;1759611;78;21065;-82
2021/01/22 07:24:17;;;;;;;25.57;16.07;;;;;;;3.22;84.63;101306.73;1759057;80;21486;-82
2021/01/22 07:26:46;;;;;;;29.65;18.35;;;;;;;3.22;84.87;101310.17;1756379;80;21070;-82
2021/01/22 07:29:24;;;;;;;22.90;15.83;;;;;;;3.24;84.88;101303.22;1753989;80;21064;-83
2021/01/22 07:32:04;;;;;;;28.30;16.80;;;;;;;3.26;84.89;101310.98;1757670;80;20946;-79
2021/01/22 07:34:49;;;;;;;31.75;18.77;;;;;;;3.26;84.78;101304.05;1731348;79;21993;-82
2021/01/22 07:37:24;;;;;;;26.40;17.12;;;;;;;3.25;84.71;101301.51;1756728;80;21598;-84
2021/01/22 07:39:54;;;;;;;25.82;16.75;;;;;;;3.26;84.57;101295.42;1758515;80;21487;-76
2021/01/22 07:42:26;;;;;;;24.98;15.08;;;;;;;3.22;84.63;101295.91;1753603;80;21145;-79
2021/01/22 07:44:54;;;;;;;21.50;13.25;;;;;;;3.19;84.63;101292.09;1756640;80;21017;-83
2021/01/22 07:47:29;;;;;;;26.62;16.55;;;;;;;3.18;84.70;101292.99;1756589;81;21085;-82
2021/01/22 07:50:05;;;;;;;;;;;;;;;3.15;84.87;101293.03;1758346;80;21597;-80
2021/01/22 07:52:44;;;;;;;26.82;15.93;;;;;;;3.14;84.94;101290.48;1781951;79;20177;-80
2021/01/22 07:55:18;;;;;;;27.73;15.90;;;;;;;3.14;84.94;101290.48;1754989;80;20965;-79
2021/01/22 07:57:47;;;;;;;19.25;12.93;;;;;;;3.14;84.95;101295.22;1755557;80;21054;-83
2021/01/22 08:00:19;;;;;;;23.12;13.80;;;;;;;3.13;85.08;101296.09;1757088;80;21089;-82
2021/01/22 08:02:57;;;;;;;21.70;14.35;;;;;;;3.12;85.23;101294.39;1781969;79;21084;-81
2021/01/22 08:05:33;;;;;;;26.35;14.75;;;;;;;3.11;85.28;101292.66;1755981;80;20996;-81
2021/01/22 08:08:02;;;;;;;27.00;15.93;;;;;;;3.13;85.39;101294.79;1755679;80;21104;-80
2021/01/22 08:10:32;;;;;;;26.33;15.20;;;;;;;3.14;85.43;101305.59;1754629;80;21152;-78
2021/01/22 08:13:00;;;;;;;22.58;14.63;;;;;;;3.18;85.46;101305.95;1756390;80;22594;-81
2021/01/22 08:15:29;;;;;;;20.68;13.83;;;;;;;3.25;85.41;101303.65;1754279;80;20969;-83
2021/01/22 08:17:57;;;;;;;24.15;15.00;;;;;;;3.28;85.41;101306.17;1747340;80;21534;-83
2021/01/22 08:20:29;;;;;;;21.93;14.13;;;;;;;3.34;85.35;101297.89;1781193;80;21020;-81
2021/01/22 08:22:59;;;;;;;25.32;15.70;;;;;;;3.36;85.27;101306.05;1755077;80;20954;-80
2021/01/22 08:25:43;;;;;;;29.50;16.15;;;;;;;3.43;85.22;101304.19;1853669;77;22706;-82
2021/01/22 08:28:30;;;;;;;;;;;;;;;;;;;;;
2021/01/22 08:41:30;;;;;;;34.55;19.00;;;;;;;3.45;85.09;101290.75;1821038;78;22308;-82
2021/01/22 08:44:16;;;;;;;31.42;19.07;;;;;;;3.47;85.03;101283.35;1877388;75;23338;-83
2021/01/22 08:46:50;;;;;;;35.03;21.52;;;;;;;3.46;84.86;101291.16;1790035;78;20986;-83
2021/01/22 08:49:18;;;;;;;30.75;19.15;;;;;;;3.47;84.69;101275.58;1788850;78;21243;-83
2021/01/22 08:51:47;;;;;;;31.12;20.52;;;;;;;3.53;84.47;101279.77;1788883;78;21368;-82
2021/01/22 08:54:21;;;;;;;31.00;18.67;;;;;;;3.56;84.30;101275.84;1789022;78;20899;-89
2021/01/22 08:57:04;;;;;;;34.50;21.12;;;;;;;3.58;84.15;101286.16;1820847;77;20915;-82
2021/01/22 08:59:54;;;;;;;34.27;21.42;;;;;;;3.61;84.13;101275.29;1788568;78;21491;-82
2021/01/22 09:02:42;;;;;;;36.20;22.58;;;;;;;3.66;83.96;101282.97;1788062;78;21122;-82
2021/01/22 09:05:13;;;;;;;39.98;24.47;;;;;;;3.68;83.79;101267.78;1788157;78;21491;-83
2021/01/22 09:07:41;;;;;;;36.85;23.20;;;;;;;3.70;83.63;101267.31;1788351;78;20958;-81
2021/01/22 09:10:30;;;;;;;32.98;22.48;;;;;;;3.74;83.42;101264.22;1788280;77;21009;-82
2021/01/22 09:13:13;;;;;;;33.50;20.37;;;;;;;3.74;83.28;101257.73;1788280;78;20959;-84
2021/01/22 09:15:42;;;;;;;33.28;19.87;;;;;;;3.76;83.30;101252.08;1787981;78;21039;-81
2021/01/22 09:18:22;;;;;;;34.67;21.37;;;;;;;3.76;83.29;101255.97;1788378;78;21392;-82
2021/01/22 09:21:00;;;;;;;38.67;23.22;;;;;;;3.76;83.23;101235.22;1786473;78;20950;-80
2021/01/22 09:23:29;;;;;;;36.28;21.70;;;;;;;3.78;83.15;101237.33;1788171;78;21495;-81
2021/01/22 09:25:57;;;;;;;38.73;22.98;;;;;;;3.85;82.97;101244.54;1788163;78;21109;-82
2021/01/22 09:28:25;;;;;;;31.75;20.43;;;;;;;3.89;82.74;101241.84;1788256;78;21076;-81
2021/01/22 09:30:53;;;;;;;34.35;22.48;;;;;;;3.94;82.68;101239.14;1788508;78;21589;-82
2021/01/22 09:36:20;;;;;;;35.90;22.60;;;;;;;4.05;82.31;101235.86;1816155;79;22660;-76
2021/01/22 09:38:48;;;;;;;30.48;20.70;;;;;;;4.05;82.14;101230.66;1773464;78;20942;-78
2021/01/22 09:41:18;;;;;;;35.25;21.10;;;;;;;4.07;81.94;101231.48;1789772;78;22488;-78
2021/01/22 09:43:46;;;;;;;31.27;19.87;;;;;;;4.10;81.79;101229.26;1724967;81;21132;-80
2021/01/22 09:46:14;;;;;;;31.35;20.37;;;;;;;4.14;81.74;101229.15;1725121;81;21018;-77
2021/01/22 09:48:45;;;;;;;32.40;18.77;;;;;;;4.18;81.61;101232.53;1749785;81;21074;-79
2021/01/22 09:51:13;;;;;;;33.05;19.57;;;;;;;4.21;81.45;101233.75;1725222;81;20979;-78
2021/01/22 09:53:41;;;;;;;35.45;20.45;;;;;;;4.23;81.35;101228.08;1724976;81;20983;-79
2021/01/22 09:56:09;;;;;;;32.08;20.85;;;;;;;4.29;81.08;101225.34;1723212;81;20964;-79
2021/01/22 09:58:37;;;;;;;31.52;19.55;;;;;;;4.32;80.80;101223.11;1724713;81;20986;-79
2021/01/22 10:01:05;;;;;;;36.95;22.52;;;;;;;4.32;80.69;101205.78;1724775;81;21045;-78
2021/01/22 10:03:33;;;;;;;38.20;24.70;;;;;;;4.32;80.51;101210.13;1724603;81;21069;-77
2021/01/22 10:06:01;;;;;;;34.90;23.10;;;;;;;4.31;80.60;101201.92;1724703;81;22084;-76
2021/01/22 10:08:32;;;;;;;28.27;19.70;;;;;;;4.31;80.61;101200.20;1724413;81;20978;-76
2021/01/22 10:11:17;;;;;;;32.08;20.40;;;;;;;4.35;80.50;101195.31;1722901;81;21488;-76
2021/01/22 10:13:45;;;;;;;32.88;20.97;;;;;;;4.39;80.40;101190.91;1724397;81;21027;-76
2021/01/22 10:16:13;;;;;;;35.28;22.40;;;;;;;4.40;80.38;101193.05;1724603;81;21037;-78
2021/01/22 10:18:41;;;;;;;36.45;22.50;;;;;;;4.39;80.47;101195.25;1724563;81;21290;-77
2021/01/22 10:21:10;;;;;;;33.58;22.32;;;;;;;4.41;80.50;101196.92;1724626;81;20982;-78
2021/01/22 10:23:38;;;;;;;34.10;20.05;;;;;;;4.41;80.45;101193.02;1724858;81;20987;-82
2021/01/22 10:26:15;;;;;;;29.92;19.90;;;;;;;4.45;80.46;101188.16;1724679;81;21026;-83
2021/01/22 10:28:43;;;;;;;29.63;18.48;;;;;;;4.51;80.43;101189.73;1724599;81;21070;-83
2021/01/22 10:31:11;;;;;;;33.48;20.97;;;;;;;4.56;80.31;101178.34;1724847;81;21173;-82
2021/01/22 10:33:41;;;;;;;36.35;21.68;;;;;;;4.62;80.27;101179.07;1724789;81;20967;-78
2021/01/22 10:40:02;;;;;;;29.95;19.80;;;;;;;4.72;79.93;101165.80;1816586;79;20938;-82
2021/01/22 10:42:30;;;;;;;26.85;18.02;;;;;;;4.81;79.69;101162.55;1784023;79;21476;-84
2021/01/22 10:45:01;;;;;;;32.17;19.82;;;;;;;4.84;79.53;101163.30;1784394;79;21475;-82
2021/01/22 10:50:43;;;;;;;32.08;21.30;;;;;;;4.83;79.38;101152.98;1783821;79;20962;-79
2021/01/22 10:53:11;;;;;;;38.42;21.02;;;;;;;4.81;79.29;101156.06;1783750;79;20963;-80
2021/01/22 10:55:41;;;;;;;37.38;22.95;;;;;;;4.77;79.36;101149.63;1745685;82;20951;-80
2021/01/22 10:58:10;;;;;;;30.68;18.92;;;;;;;4.75;79.31;101141.02;1783354;79;21439;-83
2021/01/22 11:00:38;;;;;;;34.30;19.07;;;;;;;4.76;79.38;101144.50;1783361;79;20971;-80
2021/01/22 11:03:06;;;;;;;38.40;21.73;;;;;;;4.74;79.46;101128.09;1783796;79;21026;-79
2021/01/22 11:05:35;;;;;;;38.23;22.02;;;;;;;4.73;79.43;101135.02;1716361;82;21694;-82
2021/01/22 11:08:05;;;;;;;33.18;21.70;;;;;;;4.72;79.48;101125.98;1783408;79;21010;-81
2021/01/22 11:10:33;;;;;;;32.90;20.23;;;;;;;4.71;79.51;101130.34;1785168;79;21185;-81
2021/01/22 11:13:03;;;;;;;32.20;19.48;;;;;;;4.73;79.45;101121.18;1786250;79;21018;-85
2021/01/22 11:15:34;;;;;;;31.10;18.65;;;;;;;4.74;79.43;101124.20;1787165;79;21129;-87
2021/01/22 11:18:04;;;;;;;28.60;19.23;;;;;;;4.72;79.54;101120.34;1787132;79;21599;-83
2021/01/22 11:20:32;;;;;;;37.05;22.15;;;;;;;4.71;79.58;101116.47;1719607;82;20900;-83
2021/01/22 11:23:01;;;;;;;36.00;23.15;;;;;;;4.69;79.55;101124.33;1786933;79;21473;-85
2021/01/22 11:25:30;;;;;;;35.85;21.37;;;;;;;4.70;79.54;101113.03;1716997;82;21062;-81
2021/01/22 11:31:48;;;;;;;;;;;;;;;;;;;;;
2021/01/22 11:34:42;;;;;;;39.10;23.27;;;;;;;4.70;79.61;101100.50;1754585;79;20935;-84
2021/01/22 11:37:12;;;;;;;44.75;24.80;;;;;;;4.68;79.65;101100.53;1784705;79;22253;-84
2021/01/22 11:39:40;;;;;;;34.92;21.90;;;;;;;4.68;79.63;101102.28;1717237;82;20967;-84
2021/01/22 11:42:09;;;;;;;36.85;21.30;;;;;;;4.68;79.67;101100.98;1783966;79;20947;-71
2021/01/22 11:44:43;;;;;;;31.48;19.57;;;;;;;4.70;79.56;101100.04;1716675;82;20985;-71
2021/01/22 11:47:13;;;;;;;37.85;18.95;;;;;;;4.71;79.50;101102.19;1783476;79;21366;-71
2021/01/22 11:49:41;;;;;;;29.42;19.05;;;;;;;4.70;79.57;101099.20;1716804;82;21072;-71
2021/01/22 11:52:12;;;;;;;35.78;22.37;;;;;;;4.67;79.60;101103.16;1784119;79;21392;-71
2021/01/22 11:54:40;;;;;;;39.13;21.35;;;;;;;4.64;79.69;101100.20;1784470;79;21085;-65
2021/01/22 11:57:10;;;;;;;34.35;21.62;;;;;;;4.63;79.69;101099.81;1784450;79;20955;-71
2021/01/22 11:59:38;;;;;;;31.33;19.92;;;;;;;4.63;79.69;101093.32;1784609;79;20947;-72
2021/01/22 12:02:17;;;;;;;29.20;19.48;;;;;;;4.61;79.67;101088.61;1716459;82;21027;-72
2021/01/22 12:05:05;;;;;;;34.17;24.10;;;;;;;4.64;79.72;101094.16;1760273;79;28023;-70